Time,TemperatureF,DewpointF,PressureIn,WindDirection,WindDirectionDegrees,WindSpeedMPH,WindSpeedGustMPH,Humidity,HourlyPrecipIn,Conditions,Clouds,dailyrainin,SoftwareType,DateUTC
2013-10-24 00:00:00,60.6,43.4,30.07,SSW,205,0.0,0.0,53,0.00,,---,0.00,VWS V14.00,2013-10-24 05:00:00,
2013-10-24 00:10:00,60.3,43.6,30.07,SSW,205,0.0,0.0,54,0.00,,---,0.00,VWS V14.00,2013-10-24 05:10:00,
2013-10-24 00:20:00,59.9,43.7,30.07,SSW,202,0.0,0.0,55,0.00,,---,0.00,VWS V14.00,2013-10-24 05:20:00,
2013-10-24 00:30:00,59.7,44.0,30.07,SSW,203,0.0,0.0,56,0.00,,---,0.00,VWS V14.00,2013-10-24 05:30:00,
2013-10-24 00:40:00,59.7,44.5,30.07,SSW,203,0.0,0.0,57,0.00,,---,0.00,VWS V14.00,2013-10-24 05:40:00,
2013-10-24 00:50:00,59.4,44.1,30.07,SSW,203,0.0,0.0,57,0.00,,---,0.00,VWS V14.00,2013-10-24 05:50:00,
2013-10-24 01:00:00,59.2,44.0,30.07,SSW,201,0.0,0.0,57,0.00,,---,0.00,VWS V14.00,2013-10-24 06:00:00,
2013-10-24 01:10:00,59.2,44.4,30.04,SSW,203,0.0,0.0,58,0.00,,---,0.00,VWS V14.00,2013-10-24 06:10:00,
2013-10-24 01:20:00,58.8,44.1,30.04,SSW,203,0.0,0.0,58,0.00,,---,0.00,VWS V14.00,2013-10-24 06:20:00,
2013-10-24 01:30:00,58.6,44.4,30.07,SSW,204,0.0,0.0,59,0.00,,---,0.00,VWS V14.00,2013-10-24 06:30:00,
2013-10-24 01:40:00,58.3,44.0,30.07,SSW,204,0.0,0.0,59,0.00,,---,0.00,VWS V14.00,2013-10-24 06:40:00,
2013-10-24 01:50:00,57.9,44.1,30.07,SSW,202,0.0,0.0,60,0.00,,---,0.00,VWS V14.00,2013-10-24 06:50:00,
2013-10-24 02:00:00,57.7,44.0,30.07,SSW,202,0.0,0.0,60,0.00,,---,0.00,VWS V14.00,2013-10-24 07:00:00,
2013-10-24 02:10:00,57.2,43.5,30.07,SSW,204,0.0,0.0,60,0.00,,---,0.00,VWS V14.00,2013-10-24 07:10:00,
2013-10-24 02:20:00,57.0,43.7,30.07,SSW,205,0.0,0.0,61,0.00,,---,0.00,VWS V14.00,2013-10-24 07:20:00,
2013-10-24 02:30:00,56.7,43.8,30.07,SSW,204,0.0,0.0,62,0.00,,---,0.00,VWS V14.00,2013-10-24 07:30:00,
2013-10-24 02:40:00,56.5,43.6,30.07,SSW,203,0.0,0.0,62,0.00,,---,0.00,VWS V14.00,2013-10-24 07:40:00,
2013-10-24 02:50:00,56.3,43.9,30.07,SSW,204,0.0,0.0,63,0.00,,---,0.00,VWS V14.00,2013-10-24 07:50:00,
2013-10-24 03:00:00,56.5,44.0,30.07,SSW,202,0.0,0.0,63,0.00,,---,0.00,VWS V14.00,2013-10-24 08:00:00,
2013-10-24 03:10:00,57.0,44.6,30.07,SSW,204,0.0,0.0,63,0.00,,---,0.00,VWS V14.00,2013-10-24 08:10:00,
2013-10-24 03:20:00,57.4,44.9,30.07,SSW,203,0.0,0.0,63,0.00,,---,0.00,VWS V14.00,2013-10-24 08:20:00,
2013-10-24 03:30:00,57.4,44.9,30.07,SSW,202,0.0,0.0,63,0.00,,---,0.00,VWS V14.00,2013-10-24 08:30:00,
2013-10-24 03:40:00,57.4,44.9,30.07,SSW,205,0.0,0.0,63,0.00,,---,0.00,VWS V14.00,2013-10-24 08:40:00,
2013-10-24 03:50:00,57.0,44.6,30.07,SSW,205,0.0,0.0,63,0.00,,---,0.00,VWS V14.00,2013-10-24 08:50:00,
2013-10-24 04:00:00,56.7,44.2,30.07,SSW,202,0.0,0.0,63,0.00,,---,0.00,VWS V14.00,2013-10-24 09:00:00,
2013-10-24 04:10:00,56.5,44.5,30.07,SSW,201,0.0,0.0,64,0.00,,---,0.00,VWS V14.00,2013-10-24 09:10:00,
2013-10-24 04:20:00,56.8,44.8,30.07,SSW,203,0.0,0.0,64,0.00,,---,0.00,VWS V14.00,2013-10-24 09:20:00,
2013-10-24 04:30:00,57.2,45.2,30.07,SSW,204,0.0,0.0,64,0.00,,---,0.00,VWS V14.00,2013-10-24 09:30:00,
2013-10-24 04:40:00,57.0,45.0,30.07,SSW,203,0.0,0.0,64,0.00,,---,0.00,VWS V14.00,2013-10-24 09:40:00,
2013-10-24 04:50:00,56.5,44.5,30.07,SSW,202,0.0,0.0,64,0.00,,---,0.00,VWS V14.00,2013-10-24 09:50:00,
2013-10-24 05:00:00,55.9,44.4,30.07,SSW,203,0.0,0.0,65,0.00,,---,0.00,VWS V14.00,2013-10-24 10:00:00,
2013-10-24 05:10:00,55.2,43.7,30.10,SSW,204,0.0,0.0,65,0.00,,---,0.00,VWS V14.00,2013-10-24 10:10:00,
2013-10-24 05:20:00,54.5,43.4,30.10,SSW,203,0.0,0.0,66,0.00,,---,0.00,VWS V14.00,2013-10-24 10:20:00,
2013-10-24 05:30:00,54.1,43.4,30.10,SSW,203,0.0,0.0,67,0.00,,---,0.00,VWS V14.00,2013-10-24 10:30:00,
2013-10-24 05:40:00,53.6,42.9,30.10,SSW,204,0.0,0.0,67,0.00,,---,0.00,VWS V14.00,2013-10-24 10:40:00,
2013-10-24 05:50:00,53.1,42.8,30.10,SSW,204,0.0,0.0,68,0.00,,---,0.00,VWS V14.00,2013-10-24 10:50:00,
2013-10-24 06:00:00,52.7,42.8,30.10,SSW,204,0.0,0.0,69,0.00,,---,0.00,VWS V14.00,2013-10-24 11:00:00,
2013-10-24 06:10:00,52.5,43.0,30.10,SSW,203,0.0,0.0,70,0.00,,---,0.00,VWS V14.00,2013-10-24 11:10:00,
2013-10-24 06:20:00,52.5,43.4,30.10,SSW,202,0.0,0.0,71,0.00,,---,0.00,VWS V14.00,2013-10-24 11:20:00,
2013-10-24 06:30:00,52.3,43.2,30.10,SSW,203,0.0,0.0,71,0.00,,---,0.00,VWS V14.00,2013-10-24 11:30:00,
2013-10-24 06:40:00,52.2,43.4,30.13,SSW,205,0.0,0.0,72,0.00,,---,0.00,VWS V14.00,2013-10-24 11:40:00,
2013-10-24 06:50:00,52.0,43.2,30.13,SSW,203,0.0,0.0,72,0.00,,---,0.00,VWS V14.00,2013-10-24 11:50:00,
2013-10-24 07:00:00,51.8,43.4,30.13,SSW,204,0.0,0.0,73,0.00,,---,0.00,VWS V14.00,2013-10-24 12:00:00,
2013-10-24 07:10:00,51.6,43.3,30.13,SSW,204,0.0,0.0,73,0.00,,---,0.00,VWS V14.00,2013-10-24 12:10:00,
2013-10-24 07:20:00,51.4,43.1,30.13,SSW,205,0.0,0.0,73,0.00,,---,0.00,VWS V14.00,2013-10-24 12:20:00,
2013-10-24 07:30:00,51.3,43.3,30.13,SSW,200,0.0,0.0,74,0.00,,---,0.00,VWS V14.00,2013-10-24 12:30:00,
2013-10-24 07:40:00,51.1,43.1,30.13,SSW,208,0.0,0.0,74,0.00,,---,0.00,VWS V14.00,2013-10-24 12:40:00,
2013-10-24 07:50:00,51.1,43.4,30.13,SSW,204,0.0,0.0,75,0.00,,---,0.00,VWS V14.00,2013-10-24 12:50:00,
2013-10-24 08:00:00,50.9,43.3,30.13,SSW,202,0.0,0.0,75,0.00,,---,0.00,VWS V14.00,2013-10-24 13:00:00,
2013-10-24 08:10:00,51.1,43.8,30.16,SSW,200,0.0,0.0,76,0.00,,---,0.00,VWS V14.00,2013-10-24 13:10:00,
2013-10-24 08:20:00,51.4,44.1,30.16,SSW,203,0.0,0.0,76,0.00,,---,0.00,VWS V14.00,2013-10-24 13:20:00,
2013-10-24 08:30:00,52.0,45.0,30.16,SSW,201,0.0,0.0,77,0.00,,---,0.00,VWS V14.00,2013-10-24 13:30:00,
2013-10-24 08:40:00,52.9,46.2,30.16,SSW,203,0.0,0.0,78,0.00,,---,0.00,VWS V14.00,2013-10-24 13:40:00,
2013-10-24 08:50:00,53.8,47.1,30.16,SSW,204,0.0,0.0,78,0.00,,---,0.00,VWS V14.00,2013-10-24 13:50:00,
2013-10-24 09:00:00,55.2,48.8,30.16,SSW,206,0.0,0.0,79,0.00,,---,0.00,VWS V14.00,2013-10-24 14:00:00,
2013-10-24 09:10:00,56.8,50.1,30.16,SSW,203,0.0,0.0,78,0.00,,---,0.00,VWS V14.00,2013-10-24 14:10:00,
2013-10-24 09:20:00,58.5,51.3,30.16,SSW,202,0.0,0.0,77,0.00,,---,0.00,VWS V14.00,2013-10-24 14:20:00,
2013-10-24 09:30:00,60.3,52.7,30.19,SSW,203,0.0,0.0,76,0.00,,---,0.00,VWS V14.00,2013-10-24 14:30:00,
2013-10-24 09:40:00,61.5,53.2,30.19,SSW,203,0.0,0.0,74,0.00,,---,0.00,VWS V14.00,2013-10-24 14:40:00,
2013-10-24 09:50:00,63.1,53.6,30.19,SSW,202,0.0,0.0,71,0.00,,---,0.00,VWS V14.00,2013-10-24 14:50:00,
2013-10-24 10:00:00,64.4,53.6,30.19,SSW,200,0.0,0.0,68,0.00,,---,0.00,VWS V14.00,2013-10-24 15:00:00,
2013-10-24 10:10:00,65.3,53.7,30.19,SSW,201,0.0,0.0,66,0.00,,---,0.00,VWS V14.00,2013-10-24 15:10:00,
2013-10-24 10:20:00,66.2,53.7,30.19,SSW,200,0.0,0.0,64,0.00,,---,0.00,VWS V14.00,2013-10-24 15:20:00,
2013-10-24 10:30:00,67.1,53.7,30.19,SSW,203,0.0,0.0,62,0.00,,---,0.00,VWS V14.00,2013-10-24 15:30:00,
2013-10-24 10:40:00,67.8,53.0,30.19,SSW,205,0.0,0.0,59,0.00,,---,0.00,VWS V14.00,2013-10-24 15:40:00,
2013-10-24 10:50:00,68.7,52.9,30.19,SSW,200,0.0,0.0,57,0.00,,---,0.00,VWS V14.00,2013-10-24 15:50:00,
2013-10-24 11:00:00,69.8,52.4,30.19,SSW,202,0.0,3.6,54,0.00,,---,0.00,VWS V14.00,2013-10-24 16:00:00,
2013-10-24 11:10:00,70.7,52.2,30.19,SSW,204,0.0,3.1,52,0.00,,---,0.00,VWS V14.00,2013-10-24 16:10:00,
2013-10-24 11:20:00,71.4,51.3,30.19,SSW,203,0.0,0.0,49,0.00,,---,0.00,VWS V14.00,2013-10-24 16:20:00,
2013-10-24 11:30:00,71.2,50.0,30.19,SSW,202,0.0,2.7,47,0.00,,---,0.00,VWS V14.00,2013-10-24 16:30:00,
2013-10-24 11:40:00,71.2,50.0,30.19,SSW,205,0.0,0.0,47,0.00,,---,0.00,VWS V14.00,2013-10-24 16:40:00,
2013-10-24 11:50:00,72.3,50.4,30.19,SSW,205,0.0,4.0,46,0.00,,---,0.00,VWS V14.00,2013-10-24 16:50:00,
2013-10-24 12:00:00,73.2,50.6,30.19,SSW,203,0.0,2.7,45,0.00,,---,0.00,VWS V14.00,2013-10-24 17:00:00,
2013-10-24 12:10:00,73.0,49.2,30.19,SSW,203,0.0,3.6,43,0.00,,---,0.00,VWS V14.00,2013-10-24 17:10:00,
2013-10-24 12:20:00,72.5,48.8,30.19,SSW,202,0.0,0.0,43,0.00,,---,0.00,VWS V14.00,2013-10-24 17:20:00,
2013-10-24 12:30:00,72.1,48.4,30.19,SSW,203,2.7,2.7,43,0.00,,---,0.00,VWS V14.00,2013-10-24 17:30:00,
2013-10-24 12:40:00,73.0,48.6,30.19,SSE,165,0.0,4.0,42,0.00,,---,0.00,VWS V14.00,2013-10-24 17:40:00,
2013-10-24 12:50:00,73.9,49.4,30.19,SSE,164,0.0,0.0,42,0.00,,---,0.00,VWS V14.00,2013-10-24 17:50:00,
2013-10-24 13:00:00,73.6,48.5,30.19,SSE,165,0.0,2.7,41,0.00,,---,0.00,VWS V14.00,2013-10-24 18:00:00,
2013-10-24 13:10:00,73.8,48.6,30.19,SSE,165,0.0,0.0,41,0.00,,---,0.00,VWS V14.00,2013-10-24 18:10:00,
2013-10-24 13:20:00,74.8,48.2,30.19,SSE,168,0.0,3.6,39,0.00,,---,0.00,VWS V14.00,2013-10-24 18:20:00,
2013-10-24 13:30:00,75.0,47.7,30.19,NW,326,2.7,4.0,38,0.00,,---,0.00,VWS V14.00,2013-10-24 18:30:00,
2013-10-24 13:40:00,75.7,47.7,30.19,ENE,59,0.0,4.0,37,0.00,,---,0.00,VWS V14.00,2013-10-24 18:40:00,
2013-10-24 13:50:00,77.0,48.8,30.19,ENE,77,3.1,4.0,37,0.00,,---,0.00,VWS V14.00,2013-10-24 18:50:00,
2013-10-24 14:00:00,77.2,48.9,30.16,ENE,78,0.0,3.6,37,0.00,,---,0.00,VWS V14.00,2013-10-24 19:00:00,
2013-10-24 14:10:00,78.4,49.3,30.16,East,79,0.0,4.0,36,0.00,,---,0.00,VWS V14.00,2013-10-24 19:10:00,
2013-10-24 14:20:00,81.3,51.1,30.16,East,79,0.0,4.5,35,0.00,,---,0.00,VWS V14.00,2013-10-24 19:20:00,
2013-10-24 14:30:00,82.4,51.2,30.16,East,87,0.0,3.6,34,0.00,,---,0.00,VWS V14.00,2013-10-24 19:30:00,
2013-10-24 14:40:00,82.9,50.9,30.16,East,84,0.0,4.0,33,0.00,,---,0.00,VWS V14.00,2013-10-24 19:40:00,
2013-10-24 14:50:00,83.1,50.2,30.16,NNW,332,3.1,6.7,32,0.00,,---,0.00,VWS V14.00,2013-10-24 19:50:00,
2013-10-24 15:00:00,81.0,48.4,30.16,ESE,104,2.7,4.0,32,0.00,,---,0.00,VWS V14.00,2013-10-24 20:00:00,
2013-10-24 15:10:00,81.9,49.1,30.16,East,80,0.0,4.0,32,0.00,,---,0.00,VWS V14.00,2013-10-24 20:10:00,
2013-10-24 15:20:00,83.3,49.5,30.16,East,86,0.0,4.9,31,0.00,,---,0.00,VWS V14.00,2013-10-24 20:20:00,
2013-10-24 15:30:00,84.2,50.3,30.16,East,86,2.7,3.6,31,0.00,,---,0.00,VWS V14.00,2013-10-24 20:30:00,
2013-10-24 15:40:00,81.9,48.3,30.16,East,83,0.0,3.6,31,0.00,,---,0.00,VWS V14.00,2013-10-24 20:40:00,
2013-10-24 15:50:00,81.7,48.1,30.16,ENE,75,0.0,5.4,31,0.00,,---,0.00,VWS V14.00,2013-10-24 20:50:00,
2013-10-24 16:00:00,82.0,48.5,30.16,ENE,70,0.0,4.0,31,0.00,,---,0.00,VWS V14.00,2013-10-24 21:00:00,
2013-10-24 16:10:00,80.8,47.4,30.16,ENE,74,0.0,3.6,31,0.00,,---,0.00,VWS V14.00,2013-10-24 21:10:00,
2013-10-24 16:20:00,81.1,47.7,30.16,East,79,0.0,4.9,31,0.00,,---,0.00,VWS V14.00,2013-10-24 21:20:00,
2013-10-24 16:30:00,79.7,46.4,30.16,East,79,0.0,3.6,31,0.00,,---,0.00,VWS V14.00,2013-10-24 21:30:00,
2013-10-24 16:40:00,78.8,46.5,30.16,East,81,0.0,4.5,32,0.00,,---,0.00,VWS V14.00,2013-10-24 21:40:00,
2013-10-24 16:50:00,77.9,45.7,30.16,East,79,0.0,3.1,32,0.00,,---,0.00,VWS V14.00,2013-10-24 21:50:00,
2013-10-24 17:00:00,77.2,45.1,30.16,East,79,0.0,3.1,32,0.00,,---,0.00,VWS V14.00,2013-10-24 22:00:00,
2013-10-24 17:10:00,76.6,44.6,30.16,East,79,0.0,0.0,32,0.00,,---,0.00,VWS V14.00,2013-10-24 22:10:00,
2013-10-24 17:20:00,76.3,44.3,30.16,East,81,0.0,0.0,32,0.00,,---,0.00,VWS V14.00,2013-10-24 22:20:00,
2013-10-24 17:30:00,75.9,44.8,30.16,East,81,0.0,3.1,33,0.00,,---,0.00,VWS V14.00,2013-10-24 22:30:00,
2013-10-24 17:40:00,75.4,45.1,30.16,East,79,0.0,0.0,34,0.00,,---,0.00,VWS V14.00,2013-10-24 22:40:00,
2013-10-24 17:50:00,74.7,44.5,30.16,East,83,0.0,0.0,34,0.00,,---,0.00,VWS V14.00,2013-10-24 22:50:00,
2013-10-24 18:00:00,74.3,44.9,30.16,ENE,69,0.0,4.5,35,0.00,,---,0.00,VWS V14.00,2013-10-24 23:00:00,
2013-10-24 18:10:00,73.9,44.6,30.16,ENE,71,0.0,3.6,35,0.00,,---,0.00,VWS V14.00,2013-10-24 23:10:00,
2013-10-24 18:20:00,73.2,44.7,30.16,ENE,70,0.0,0.0,36,0.00,,---,0.00,VWS V14.00,2013-10-24 23:20:00,
2013-10-24 18:30:00,72.3,44.6,30.16,ENE,66,0.0,0.0,37,0.00,,---,0.00,VWS V14.00,2013-10-24 23:30:00,
2013-10-24 18:40:00,71.4,45.2,30.16,East,86,3.1,3.1,39,0.00,,---,0.00,VWS V14.00,2013-10-24 23:40:00,
2013-10-24 18:50:00,70.7,45.9,30.16,East,86,0.0,3.6,41,0.00,,---,0.00,VWS V14.00,2013-10-24 23:50:00,
2013-10-24 19:00:00,70.2,46.0,30.16,East,85,0.0,0.0,42,0.00,,---,0.00,VWS V14.00,2013-10-25 00:00:00,
2013-10-24 19:10:00,69.3,45.8,30.16,East,81,0.0,0.0,43,0.00,,---,0.00,VWS V14.00,2013-10-25 00:10:00,
2013-10-24 19:20:00,68.7,46.5,30.16,East,79,0.0,0.0,45,0.00,,---,0.00,VWS V14.00,2013-10-25 00:20:00,
2013-10-24 19:30:00,68.5,46.4,30.16,East,81,0.0,0.0,45,0.00,,---,0.00,VWS V14.00,2013-10-25 00:30:00,
2013-10-24 19:40:00,68.2,46.6,30.19,East,81,0.0,0.0,46,0.00,,---,0.00,VWS V14.00,2013-10-25 00:40:00,
2013-10-24 19:50:00,67.8,46.3,30.19,East,82,0.0,3.6,46,0.00,,---,0.00,VWS V14.00,2013-10-25 00:50:00,
2013-10-24 20:00:00,67.8,46.9,30.19,ENE,77,0.0,4.5,47,0.00,,---,0.00,VWS V14.00,2013-10-25 01:00:00,
2013-10-24 20:10:00,67.8,46.9,30.19,ENE,76,0.0,4.9,47,0.00,,---,0.00,VWS V14.00,2013-10-25 01:10:00,
2013-10-24 20:20:00,67.6,47.3,30.19,ENE,77,0.0,5.4,48,0.00,,---,0.00,VWS V14.00,2013-10-25 01:20:00,
2013-10-24 20:30:00,67.5,47.1,30.19,East,84,0.0,4.0,48,0.00,,---,0.00,VWS V14.00,2013-10-25 01:30:00,
2013-10-24 20:40:00,67.3,46.9,30.19,ESE,118,0.0,6.7,48,0.00,,---,0.00,VWS V14.00,2013-10-25 01:40:00,
2013-10-24 20:50:00,67.3,46.9,30.19,SSE,149,0.0,4.9,48,0.00,,---,0.00,VWS V14.00,2013-10-25 01:50:00,
2013-10-24 21:00:00,67.5,46.5,30.19,ENE,65,0.0,6.7,47,0.00,,---,0.00,VWS V14.00,2013-10-25 02:00:00,
2013-10-24 21:10:00,67.3,46.4,30.22,ENE,58,0.0,5.8,47,0.00,,---,0.00,VWS V14.00,2013-10-25 02:10:00,
2013-10-24 21:20:00,67.1,46.2,30.22,East,86,4.0,5.8,47,0.00,,---,0.00,VWS V14.00,2013-10-25 02:20:00,
2013-10-24 21:30:00,66.9,46.0,30.22,ENE,66,0.0,7.4,47,0.00,,---,0.00,VWS V14.00,2013-10-25 02:30:00,
2013-10-24 21:40:00,66.7,45.3,30.22,East,89,3.1,5.8,46,0.00,,---,0.00,VWS V14.00,2013-10-25 02:40:00,
2013-10-24 21:50:00,66.4,44.4,30.22,ENE,66,4.5,6.7,45,0.00,,---,0.00,VWS V14.00,2013-10-25 02:50:00,
2013-10-24 22:00:00,66.2,44.2,30.22,NE,47,3.6,6.9,45,0.00,,---,0.00,VWS V14.00,2013-10-25 03:00:00,
2013-10-24 22:10:00,65.8,43.3,30.22,ENE,59,4.9,6.7,44,0.00,,---,0.00,VWS V14.00,2013-10-25 03:10:00,
2013-10-24 22:20:00,65.3,42.8,30.22,NNE,26,2.7,8.7,44,0.00,,---,0.00,VWS V14.00,2013-10-25 03:20:00,
2013-10-24 22:30:00,64.9,42.5,30.25,East,85,4.5,6.3,44,0.00,,---,0.00,VWS V14.00,2013-10-25 03:30:00,
2013-10-24 22:40:00,64.6,42.2,30.25,NE,53,2.7,6.3,44,0.00,,---,0.00,VWS V14.00,2013-10-25 03:40:00,
2013-10-24 22:50:00,64.0,41.7,30.25,NE,49,2.7,6.3,44,0.00,,---,0.00,VWS V14.00,2013-10-25 03:50:00,
2013-10-24 23:00:00,63.7,41.4,30.25,ENE,63,3.1,5.8,44,0.00,,---,0.00,VWS V14.00,2013-10-25 04:00:00,
2013-10-24 23:10:00,63.1,41.5,30.25,NNE,27,3.1,5.4,45,0.00,,---,0.00,VWS V14.00,2013-10-25 04:10:00,
2013-10-24 23:20:00,62.8,41.2,30.25,East,84,0.0,7.4,45,0.00,,---,0.00,VWS V14.00,2013-10-25 04:20:00,
2013-10-24 23:30:00,62.4,40.8,30.25,ENE,65,3.1,4.9,45,0.00,,---,0.00,VWS V14.00,2013-10-25 04:30:00,
2013-10-24 23:40:00,62.1,40.5,30.25,ENE,76,0.0,5.4,45,0.00,,---,0.00,VWS V14.00,2013-10-25 04:40:00,
2013-10-24 23:50:00,61.7,40.7,30.25,NE,45,3.1,4.9,46,0.00,,---,0.00,VWS V14.00,2013-10-25 04:50:00,